Time;durP1;ratioP1;P1;durP2;ratioP2;P2;SDS_P1;SDS_P2;PMS_P1;PMS_P2;Temp;Humidity;BMP_temperature;BMP_pressure;BME280_temperature;BME280_humidity;BME280_pressure;Samples;Min_cycle;Max_cycle;Signal;HPM_P1;HPM_P2
2022/08/26 00:01:38;;;;;;;39.05;35.50;;;20.80;99.90;;;;;;4982893;28;20043;-79
2022/08/26 00:04:04;;;;;;;38.95;35.42;;;20.80;99.90;;;;;;4980426;28;20047;-80
2022/08/26 00:06:31;;;;;;;39.17;35.42;;;20.80;99.90;;;;;;5008143;28;20518;-80
2022/08/26 00:08:57;;;;;;;38.60;34.47;;;20.70;99.90;;;;;;4981555;28;22126;-79
2022/08/26 00:11:22;;;;;;;38.08;34.53;;;20.80;99.90;;;;;;4985884;28;20086;-79
2022/08/26 00:13:48;;;;;;;41.72;37.42;;;20.70;99.90;;;;;;5008193;28;20070;-79
2022/08/26 00:16:13;;;;;;;39.53;36.22;;;20.70;99.90;;;;;;4975884;28;20051;-80
2022/08/26 00:18:39;;;;;;;39.80;36.28;;;20.60;99.90;;;;;;4979896;28;20127;-79
2022/08/26 00:21:07;;;;;;;40.75;36.55;;;20.60;99.90;;;;;;4982782;28;20057;-79
2022/08/26 00:23:33;;;;;;;42.03;38.10;;;20.60;99.90;;;;;;5010172;28;20047;-80
2022/08/26 00:25:59;;;;;;;39.35;35.50;;;20.60;99.90;;;;;;5004729;28;20098;-79
2022/08/26 00:28:25;;;;;;;42.40;38.60;;;20.60;99.90;;;;;;4985170;28;20085;-79
2022/08/26 00:30:50;;;;;;;43.80;39.70;;;20.50;99.90;;;;;;4981847;28;20931;-80
2022/08/26 00:33:18;;;;;;;45.58;41.38;;;20.50;99.90;;;;;;4983991;28;20065;-80
2022/08/26 00:35:44;;;;;;;40.30;36.55;;;20.50;99.90;;;;;;4982350;28;20041;-79
2022/08/26 00:38:10;;;;;;;40.17;36.22;;;20.50;99.90;;;;;;4981774;28;20106;-79
2022/08/26 00:40:41;;;;;;;39.35;35.53;;;20.50;99.90;;;;;;4981714;28;20199;-79
2022/08/26 00:43:07;;;;;;;38.45;34.88;;;20.50;99.90;;;;;;5012278;28;20322;-80
2022/08/26 00:45:40;;;;;;;37.35;33.35;;;20.60;99.90;;;;;;4985141;28;20045;-80
2022/08/26 00:48:07;;;;;;;34.22;30.15;;;20.60;99.90;;;;;;4986457;28;20043;-80
2022/08/26 00:50:37;;;;;;;36.28;32.53;;;20.70;99.90;;;;;;4982083;28;20043;-79
2022/08/26 00:53:20;;;;;;;34.97;30.40;;;20.70;99.90;;;;;;4985919;28;20077;-79
2022/08/26 00:56:07;;;;;;;33.42;30.08;;;20.70;99.90;;;;;;5010159;28;20049;-80
2022/08/26 00:58:35;;;;;;;31.90;28.48;;;20.70;99.90;;;;;;4984467;28;20045;-80
2022/08/26 01:01:01;;;;;;;31.00;26.85;;;20.80;99.90;;;;;;5011818;28;20043;-79
2022/08/26 01:03:29;;;;;;;31.92;28.50;;;20.80;99.90;;;;;;5011605;28;20060;-80
2022/08/26 01:05:57;;;;;;;33.17;26.83;;;20.80;99.90;;;;;;4980085;28;20047;-79
2022/08/26 01:08:23;;;;;;;30.60;27.27;;;20.80;99.90;;;;;;5015617;28;20050;-80
2022/08/26 01:10:49;;;;;;;29.52;25.38;;;20.80;99.90;;;;;;4996286;28;20058;-80
2022/08/26 01:13:15;;;;;;;34.10;26.10;;;20.80;99.90;;;;;;4983210;28;20051;-80
2022/08/26 01:15:48;;;;;;;27.70;24.63;;;20.80;99.90;;;;;;4984700;28;20052;-80
2022/08/26 01:18:14;;;;;;;28.83;24.83;;;20.90;99.90;;;;;;5014979;28;20038;-80
2022/08/26 01:20:56;;;;;;;31.13;25.38;;;20.90;99.90;;;;;;4998268;28;20101;-80
2022/08/26 01:23:25;;;;;;;32.80;27.10;;;20.90;99.90;;;;;;5013008;28;20046;-80
2022/08/26 01:25:58;;;;;;;32.22;24.75;;;20.90;99.90;;;;;;4990259;28;20462;-81
2022/08/26 01:28:27;;;;;;;26.52;22.80;;;20.90;99.90;;;;;;5012788;28;20138;-79
2022/08/26 01:30:55;;;;;;;27.73;24.73;;;21.00;99.90;;;;;;4985988;28;20050;-80
2022/08/26 01:33:28;;;;;;;27.50;23.92;;;20.90;99.90;;;;;;4985502;28;20030;-79
2022/08/26 01:35:54;;;;;;;27.13;22.75;;;21.00;99.90;;;;;;4981466;28;20390;-79
2022/08/26 01:38:20;;;;;;;25.85;23.00;;;21.00;99.90;;;;;;4981431;28;20056;-80
2022/08/26 01:40:46;;;;;;;28.55;21.55;;;21.00;99.90;;;;;;4986322;28;20039;-80
2022/08/26 01:43:20;;;;;;;24.17;21.58;;;21.00;99.90;;;;;;5009646;28;20046;-80
2022/08/26 01:45:48;;;;;;;29.38;20.23;;;21.00;99.90;;;;;;4983068;28;20038;-80
2022/08/26 01:48:18;;;;;;;31.10;22.27;;;21.00;99.90;;;;;;4970921;28;20570;-80
2022/08/26 01:50:45;;;;;;;24.02;21.15;;;21.00;99.90;;;;;;5013002;28;21844;-80
2022/08/26 01:53:13;;;;;;;27.42;22.23;;;21.00;99.90;;;;;;4981537;28;20066;-79
2022/08/26 01:55:43;;;;;;;26.05;22.20;;;21.00;99.90;;;;;;4976800;28;20047;-79
2022/08/26 01:58:13;;;;;;;28.52;21.35;;;21.00;99.90;;;;;;5011704;28;20119;-79
2022/08/26 02:00:39;;;;;;;30.92;20.83;;;21.00;99.90;;;;;;4984340;28;20046;-80
2022/08/26 02:03:15;;;;;;;26.40;21.45;;;20.90;99.90;;;;;;4985847;28;20038;-79
2022/08/26 02:05:42;;;;;;;24.70;19.40;;;21.00;99.90;;;;;;4980573;28;20485;-79
2022/08/26 02:08:08;;;;;;;27.60;19.67;;;21.00;99.90;;;;;;4979436;28;20045;-79
2022/08/26 02:10:34;;;;;;;23.60;19.58;;;20.90;99.90;;;;;;4981427;28;20046;-79
2022/08/26 02:13:00;;;;;;;23.77;19.73;;;20.90;99.90;;;;;;4979901;28;20043;-79
2022/08/26 02:15:25;;;;;;;24.95;19.27;;;20.90;99.90;;;;;;4977242;28;20043;-79
2022/08/26 02:17:52;;;;;;;26.08;18.25;;;20.90;99.90;;;;;;4982407;28;20054;-79
2022/08/26 02:20:19;;;;;;;23.30;18.05;;;20.90;99.90;;;;;;5013646;28;20532;-79
2022/08/26 02:22:45;;;;;;;25.58;18.30;;;20.90;99.90;;;;;;4981177;28;20043;-79
2022/08/26 02:25:22;;;;;;;22.45;17.02;;;20.90;99.90;;;;;;4983740;28;20129;-79
2022/08/26 02:27:48;;;;;;;23.33;17.15;;;20.90;99.90;;;;;;5007587;28;20054;-79
2022/08/26 02:30:20;;;;;;;24.40;17.70;;;20.90;99.90;;;;;;4987339;28;20053;-79
2022/08/26 02:32:46;;;;;;;25.38;16.35;;;20.90;99.90;;;;;;4978255;28;20587;-79
2022/08/26 02:35:14;;;;;;;20.17;16.70;;;20.90;99.90;;;;;;4981079;28;20050;-79
2022/08/26 02:37:40;;;;;;;20.05;14.70;;;20.90;99.90;;;;;;4992791;28;20050;-79
2022/08/26 02:40:07;;;;;;;19.00;15.20;;;20.90;99.90;;;;;;4980713;28;20053;-79
2022/08/26 02:42:33;;;;;;;16.92;13.32;;;20.90;99.90;;;;;;5007890;28;20047;-79
2022/08/26 02:44:59;;;;;;;20.85;14.73;;;20.90;99.90;;;;;;4979380;28;20058;-79
2022/08/26 02:47:25;;;;;;;18.75;13.95;;;20.80;99.90;;;;;;5009180;28;20129;-79
2022/08/26 02:49:51;;;;;;;18.63;14.40;;;20.80;99.90;;;;;;4993823;28;20129;-79
2022/08/26 02:52:16;;;;;;;22.15;13.77;;;20.80;99.90;;;;;;4978454;28;20046;-79
2022/08/26 02:54:42;;;;;;;19.70;12.95;;;20.80;99.90;;;;;;4979589;28;20047;-79
2022/08/26 02:57:09;;;;;;;24.83;12.32;;;20.80;99.90;;;;;;4981929;28;20134;-79
2022/08/26 02:59:35;;;;;;;23.67;13.25;;;20.80;99.90;;;;;;5011702;28;20759;-79
2022/08/26 03:02:00;;;;;;;22.92;14.75;;;20.80;99.90;;;;;;4978425;28;20042;-79
2022/08/26 03:04:26;;;;;;;17.58;12.32;;;20.80;99.90;;;;;;4975943;28;20046;-79
2022/08/26 03:06:52;;;;;;;21.63;13.52;;;20.80;99.90;;;;;;4979407;28;20061;-79
2022/08/26 03:09:18;;;;;;;19.95;12.75;;;20.80;99.90;;;;;;5008867;28;20042;-79
2022/08/26 03:11:46;;;;;;;22.90;13.32;;;20.80;99.90;;;;;;4982833;28;20782;-80
2022/08/26 03:14:12;;;;;;;22.17;13.82;;;20.80;99.90;;;;;;4982377;28;20077;-79
2022/08/26 03:16:38;;;;;;;24.55;13.73;;;20.80;99.90;;;;;;4981218;28;20058;-79
2022/08/26 03:19:06;;;;;;;18.33;12.40;;;20.80;99.90;;;;;;5008377;28;20046;-80
2022/08/26 03:21:32;;;;;;;23.05;13.10;;;20.80;99.90;;;;;;4983225;28;20042;-79
2022/08/26 03:23:58;;;;;;;22.35;13.38;;;20.90;99.90;;;;;;5011133;28;20058;-79
2022/08/26 03:26:24;;;;;;;23.40;12.35;;;20.80;99.90;;;;;;5012242;28;20046;-79
2022/08/26 03:31:34;;;;;;;24.75;12.55;;;20.90;99.90;;;;;;5006903;28;20080;-79
2022/08/26 03:34:00;;;;;;;17.95;11.65;;;20.90;99.90;;;;;;5010434;28;20487;-79
2022/08/26 03:36:26;;;;;;;19.75;12.55;;;20.80;99.90;;;;;;4986281;28;20069;-80
2022/08/26 03:38:51;;;;;;;15.68;10.20;;;20.80;99.90;;;;;;4991597;28;20061;-79
2022/08/26 03:41:17;;;;;;;22.08;11.55;;;20.80;99.90;;;;;;4994865;28;20109;-79
2022/08/26 03:43:43;;;;;;;18.83;10.38;;;20.90;99.90;;;;;;5011408;28;20462;-80
2022/08/26 03:46:10;;;;;;;27.33;10.50;;;20.90;99.90;;;;;;4985401;28;20046;-79
2022/08/26 03:48:36;;;;;;;23.33;11.57;;;20.80;99.90;;;;;;4976242;28;20050;-79
2022/08/26 03:51:04;;;;;;;19.55;11.40;;;20.90;99.90;;;;;;4983330;28;20066;-80
2022/08/26 03:53:29;;;;;;;17.50;10.52;;;20.90;99.90;;;;;;4977532;28;20046;-79
2022/08/26 03:55:56;;;;;;;14.40;9.63;;;20.90;99.90;;;;;;4983922;28;20043;-80
2022/08/26 03:58:25;;;;;;;14.57;9.57;;;20.80;99.90;;;;;;4982631;28;20058;-79
2022/08/26 04:00:50;;;;;;;18.02;9.75;;;20.80;99.90;;;;;;5008652;28;20101;-80
2022/08/26 04:03:56;;;;;;;17.98;9.18;;;20.90;99.90;;;;;;5009270;28;20046;-79
2022/08/26 04:06:02;;;;;;;17.85;9.45;;;20.90;99.90;;;;;;5005123;28;20081;-79
2022/08/26 04:08:28;;;;;;;21.17;10.32;;;20.90;99.90;;;;;;5013128;28;20046;-79
2022/08/26 04:10:54;;;;;;;15.63;8.88;;;20.80;99.90;;;;;;4985352;28;20073;-79
2022/08/26 04:13:19;;;;;;;14.50;8.63;;;20.80;99.90;;;;;;5015165;28;20051;-79
2022/08/26 04:15:45;;;;;;;18.95;9.55;;;20.90;99.90;;;;;;4986925;28;20158;-80
2022/08/26 04:18:10;;;;;;;16.00;8.95;;;20.80;99.90;;;;;;4986930;28;20042;-79
2022/08/26 04:20:36;;;;;;;15.82;8.02;;;20.90;99.90;;;;;;4984129;28;20054;-79
2022/08/26 04:23:02;;;;;;;17.20;8.65;;;20.80;99.90;;;;;;5014526;28;20050;-80
2022/08/26 04:25:27;;;;;;;14.30;8.38;;;20.80;99.90;;;;;;4989775;28;20065;-79
2022/08/26 04:27:53;;;;;;;14.32;9.13;;;20.80;99.90;;;;;;4987331;28;20446;-80
2022/08/26 04:30:19;;;;;;;16.95;8.98;;;20.80;99.90;;;;;;4982967;28;20050;-79
2022/08/26 04:32:45;;;;;;;14.85;8.23;;;20.80;99.90;;;;;;4969185;28;20038;-79
2022/08/26 04:35:11;;;;;;;15.52;7.68;;;20.80;99.90;;;;;;4984881;28;20105;-79
2022/08/26 04:37:36;;;;;;;13.40;7.28;;;20.70;99.90;;;;;;4998324;28;20046;-79
2022/08/26 04:40:04;;;;;;;12.55;6.70;;;20.70;99.90;;;;;;4986127;28;20144;-79
2022/08/26 04:42:32;;;;;;;13.45;6.30;;;20.70;99.90;;;;;;5011588;28;20046;-79
2022/08/26 04:44:57;;;;;;;14.63;6.22;;;20.70;99.90;;;;;;4987304;28;20034;-79
2022/08/26 04:47:23;;;;;;;13.18;7.10;;;20.70;99.90;;;;;;4982239;28;20502;-79
2022/08/26 04:49:52;;;;;;;14.70;6.93;;;20.70;99.90;;;;;;4984300;28;20045;-79
2022/08/26 04:52:17;;;;;;;14.93;7.57;;;20.70;99.90;;;;;;4980839;28;20050;-78
2022/08/26 04:54:43;;;;;;;11.57;6.43;;;20.80;99.90;;;;;;5008521;28;20042;-79
2022/08/26 04:57:08;;;;;;;15.60;7.43;;;20.70;99.90;;;;;;5016964;28;20050;-79
2022/08/26 04:59:34;;;;;;;15.18;7.05;;;20.70;99.90;;;;;;5008938;28;20038;-79
2022/08/26 05:02:00;;;;;;;10.43;6.88;;;20.60;99.90;;;;;;5010867;28;20101;-79
2022/08/26 05:04:26;;;;;;;11.25;6.43;;;20.70;99.90;;;;;;4993927;28;20050;-79
2022/08/26 05:06:51;;;;;;;15.50;6.97;;;20.80;99.90;;;;;;5013057;28;20057;-78
2022/08/26 05:09:17;;;;;;;14.80;7.13;;;20.70;99.90;;;;;;4983356;28;20099;-79
2022/08/26 05:11:44;;;;;;;13.23;6.95;;;20.70;99.90;;;;;;4985923;28;20049;-79
2022/08/26 05:14:10;;;;;;;16.60;6.15;;;20.70;99.90;;;;;;4979468;28;20064;-79
2022/08/26 05:16:36;;;;;;;13.93;6.07;;;20.70;99.90;;;;;;4978167;28;20058;-79
2022/08/26 05:19:04;;;;;;;13.00;6.07;;;20.80;99.90;;;;;;4980406;28;20034;-80
2022/08/26 05:21:29;;;;;;;15.13;5.78;;;20.80;99.90;;;;;;4982902;28;20042;-79
2022/08/26 05:23:55;;;;;;;16.48;5.65;;;20.80;99.90;;;;;;5010124;28;20043;-78
2022/08/26 05:26:28;;;;;;;10.93;5.97;;;20.80;99.90;;;;;;4983098;28;20077;-79
2022/08/26 05:28:55;;;;;;;13.77;5.38;;;20.80;99.90;;;;;;5011216;28;20042;-79
2022/08/26 05:31:28;;;;;;;13.30;5.43;;;20.90;99.90;;;;;;4985014;28;20034;-80
2022/08/26 05:33:56;;;;;;;19.60;6.20;;;20.90;99.90;;;;;;5002126;28;20105;-80
2022/08/26 05:36:24;;;;;;;14.27;5.85;;;20.90;99.90;;;;;;4986124;28;20576;-79
2022/08/26 05:38:51;;;;;;;10.95;5.28;;;21.00;99.90;;;;;;4981979;28;20075;-79
2022/08/26 05:41:23;;;;;;;14.90;4.75;;;20.90;99.90;;;;;;5016158;28;20038;-79
2022/08/26 05:43:50;;;;;;;18.80;5.05;;;21.00;99.90;;;;;;4984471;28;20038;-79
2022/08/26 05:46:16;;;;;;;13.73;5.07;;;21.00;99.90;;;;;;4983334;28;20042;-80
2022/08/26 05:48:42;;;;;;;15.85;5.07;;;21.00;99.90;;;;;;4996190;28;20042;-79
2022/08/26 05:51:09;;;;;;;11.60;5.32;;;21.10;99.90;;;;;;4982951;28;20050;-80
2022/08/26 05:53:36;;;;;;;15.43;4.82;;;21.10;99.90;;;;;;4989148;28;20033;-80
2022/08/26 05:56:03;;;;;;;14.85;5.22;;;21.10;99.90;;;;;;5017316;28;20121;-80
2022/08/26 05:58:28;;;;;;;12.93;4.55;;;21.20;99.90;;;;;;4993524;28;20450;-78
2022/08/26 06:01:07;;;;;;;12.15;4.30;;;21.20;99.90;;;;;;4983448;28;20046;-78
2022/08/26 06:03:34;;;;;;;11.15;4.60;;;21.30;99.90;;;;;;5006260;28;20057;-79
2022/08/26 06:06:08;;;;;;;15.82;4.55;;;21.30;99.90;;;;;;4980370;28;20048;-79
2022/08/26 06:08:37;;;;;;;14.30;4.85;;;21.40;99.90;;;;;;4986420;28;20065;-80
2022/08/26 06:11:07;;;;;;;17.40;5.10;;;21.40;99.90;;;;;;4978884;28;20034;-78
2022/08/26 06:13:33;;;;;;;11.88;5.18;;;21.40;99.90;;;;;;4967848;28;20050;-78
2022/08/26 06:16:03;;;;;;;17.00;4.70;;;21.50;99.90;;;;;;4967762;28;20038;-78
2022/08/26 06:18:33;;;;;;;12.32;5.13;;;21.40;99.90;;;;;;4968314;28;20057;-78
2022/08/26 06:21:00;;;;;;;16.52;5.25;;;21.50;99.90;;;;;;4970365;28;20070;-79
2022/08/26 06:26:16;;;;;;;16.08;5.07;;;21.60;99.90;;;;;;4971198;28;20063;-78
2022/08/26 06:28:42;;;;;;;15.32;5.22;;;21.60;99.90;;;;;;4983015;28;20082;-79
2022/08/26 06:31:08;;;;;;;17.92;4.55;;;21.60;99.90;;;;;;4973268;28;20050;-78
2022/08/26 06:33:34;;;;;;;14.30;3.22;;;21.60;99.90;;;;;;4967001;28;21257;-78
2022/08/26 06:36:00;;;;;;;14.02;4.63;;;21.60;99.90;;;;;;4968776;28;20047;-79
2022/08/26 06:38:25;;;;;;;18.23;3.60;;;21.60;99.90;;;;;;4996576;28;20609;-78
2022/08/26 06:40:53;;;;;;;14.27;4.65;;;21.60;99.90;;;;;;4968182;28;20085;-79
2022/08/26 06:43:22;;;;;;;11.63;3.47;;;21.70;99.90;;;;;;4973461;28;20039;-79
2022/08/26 06:45:48;;;;;;;13.48;4.30;;;21.60;99.90;;;;;;4985607;28;20050;-79
2022/08/26 06:48:16;;;;;;;13.93;4.50;;;21.60;99.90;;;;;;4998169;28;20054;-78
2022/08/26 06:50:42;;;;;;;14.57;3.97;;;21.60;99.90;;;;;;4971150;28;20046;-78
2022/08/26 06:53:10;;;;;;;11.05;4.07;;;21.60;99.90;;;;;;4975153;28;20057;-78
2022/08/26 06:55:44;;;;;;;12.35;4.05;;;21.60;99.90;;;;;;4977813;28;20042;-79
2022/08/26 06:58:11;;;;;;;16.43;3.83;;;21.60;99.90;;;;;;4970082;28;20129;-79
2022/08/26 07:00:37;;;;;;;12.45;3.78;;;21.60;99.90;;;;;;4999539;28;20345;-79
2022/08/26 07:03:04;;;;;;;11.38;3.22;;;21.60;99.90;;;;;;4966952;28;20053;-78
2022/08/26 07:05:30;;;;;;;17.15;3.95;;;21.60;99.90;;;;;;4970525;28;21777;-79
2022/08/26 07:07:56;;;;;;;13.40;4.13;;;21.60;99.90;;;;;;4968488;28;20157;-78
2022/08/26 07:10:23;;;;;;;12.55;3.53;;;21.70;99.90;;;;;;4992974;28;20046;-79
2022/08/26 07:12:49;;;;;;;10.40;3.22;;;21.70;99.90;;;;;;4996654;28;20051;-78
2022/08/26 07:15:15;;;;;;;13.93;3.30;;;21.70;99.90;;;;;;4963962;28;20108;-78
2022/08/26 07:18:44;;;;;;;10.80;3.47;;;21.60;99.90;;;;;;4984728;28;20050;-79
2022/08/26 07:21:12;;;;;;;1999.90;211.82;;;21.70;99.90;;;;;;4970701;28;20801;-79
2022/08/26 07:23:47;;;;;;;386.15;40.45;;;21.70;99.90;;;;;;4996944;28;20053;-78
2022/08/26 07:26:23;;;;;;;15.75;4.35;;;21.70;99.90;;;;;;4970896;28;20051;-79
2022/08/26 07:28:51;;;;;;;14.93;3.30;;;21.70;99.90;;;;;;4980823;28;20165;-78
2022/08/26 07:31:35;;;;;;;15.15;3.35;;;21.70;99.90;;;;;;4965933;28;20161;-78
2022/08/26 07:34:03;;;;;;;9.25;2.63;;;21.70;99.90;;;;;;4971733;28;20321;-78
2022/08/26 07:36:32;;;;;;;9.38;2.30;;;21.60;99.90;;;;;;4938996;28;20046;-78
2022/08/26 07:38:57;;;;;;;17.27;3.00;;;21.60;99.90;;;;;;4977116;28;20146;-78
2022/08/26 07:41:24;;;;;;;8.25;2.15;;;21.50;99.90;;;;;;4965782;28;20042;-79
2022/08/26 07:43:58;;;;;;;8.65;2.42;;;21.50;99.90;;;;;;4967858;28;20458;-78
2022/08/26 07:46:46;;;;;;;9.77;2.70;;;21.50;99.90;;;;;;4969054;28;20070;-79
2022/08/26 07:49:26;;;;;;;11.57;2.47;;;21.40;99.90;;;;;;4966297;28;20053;-79
2022/08/26 07:52:23;;;;;;;11.93;2.40;;;21.50;99.90;;;;;;4997785;28;20046;-79
2022/08/26 07:54:49;;;;;;;8.80;2.28;;;21.50;99.90;;;;;;4998644;28;20426;-79
2022/08/26 07:57:15;;;;;;;11.05;2.10;;;21.50;99.90;;;;;;4967268;28;20057;-78
2022/08/26 07:59:45;;;;;;;12.40;3.00;;;21.50;99.90;;;;;;4967132;28;20053;-79
2022/08/26 08:02:32;;;;;;;10.82;2.25;;;21.40;99.90;;;;;;4980665;28;20074;-78
2022/08/26 08:04:58;;;;;;;10.25;2.15;;;21.50;99.90;;;;;;4970226;28;20058;-79
2022/08/26 08:07:27;;;;;;;7.90;1.85;;;21.50;99.90;;;;;;4967579;28;20185;-79
2022/08/26 08:10:07;;;;;;;8.85;2.03;;;21.50;99.90;;;;;;4973119;28;20129;-78
2022/08/26 08:12:36;;;;;;;6.15;1.30;;;21.50;99.90;;;;;;4967207;28;20053;-79
2022/08/26 08:15:04;;;;;;;11.43;1.95;;;21.50;99.90;;;;;;4969081;28;20125;-78
2022/08/26 08:17:30;;;;;;;6.93;1.42;;;21.50;99.90;;;;;;4997869;28;20051;-78
2022/08/26 08:19:56;;;;;;;7.15;1.75;;;21.50;99.90;;;;;;4954419;28;20070;-79
2022/08/26 08:22:56;;;;;;;9.38;2.00;;;21.50;99.90;;;;;;4954915;28;20062;-78
2022/08/26 08:25:22;;;;;;;11.75;2.08;;;21.50;99.90;;;;;;4977565;28;22291;-79
2022/08/26 08:27:48;;;;;;;7.90;1.42;;;21.50;99.90;;;;;;4980648;28;21214;-78
2022/08/26 08:30:17;;;;;;;11.05;2.00;;;21.50;99.90;;;;;;4974614;28;20047;-79
2022/08/26 08:32:48;;;;;;;8.73;1.90;;;21.50;99.90;;;;;;4984144;28;20038;-78
2022/08/26 08:35:16;;;;;;;11.77;1.90;;;21.50;99.90;;;;;;4947209;28;20073;-79
2022/08/26 08:37:44;;;;;;;9.07;1.52;;;21.60;99.90;;;;;;4977729;28;20047;-79
2022/08/26 08:40:14;;;;;;;8.25;1.58;;;21.60;99.90;;;;;;4984738;28;20130;-79
2022/08/26 08:42:56;;;;;;;11.73;1.90;;;21.60;99.90;;;;;;5012678;28;20129;-78
2022/08/26 08:45:48;;;;;;;8.45;1.25;;;21.60;99.90;;;;;;4979007;28;20050;-78
2022/08/26 08:48:35;;;;;;;8.95;1.25;;;21.60;99.90;;;;;;4982628;28;20054;-78
2022/08/26 08:51:05;;;;;;;7.95;1.10;;;21.70;99.90;;;;;;4979235;28;20217;-80
2022/08/26 08:53:37;;;;;;;8.70;1.23;;;21.60;99.90;;;;;;4981298;28;20921;-79
2022/08/26 08:56:30;;;;;;;7.38;1.75;;;21.70;99.90;;;;;;5010776;28;21073;-77
2022/08/26 08:59:14;;;;;;;6.65;1.30;;;21.60;99.90;;;;;;4971476;28;20053;-80
2022/08/26 09:01:55;;;;;;;7.45;1.65;;;21.60;99.90;;;;;;4977293;28;20070;-81
2022/08/26 09:04:48;;;;;;;11.30;1.92;;;21.70;99.90;;;;;;4970311;28;20112;-79
2022/08/26 09:07:25;;;;;;;9.80;2.00;;;21.70;99.90;;;;;;4971948;28;20045;-81
2022/08/26 09:09:54;;;;;;;9.80;1.63;;;21.80;99.90;;;;;;4972380;28;20053;-77
2022/08/26 09:12:23;;;;;;;6.30;1.13;;;21.80;99.90;;;;;;4969628;28;21722;-79
2022/08/26 09:14:50;;;;;;;9.50;1.27;;;21.80;99.90;;;;;;4954395;28;20050;-76
2022/08/26 09:17:38;;;;;;;9.60;1.15;;;21.90;99.90;;;;;;5004297;28;20054;-77
2022/08/26 09:20:38;;;;;;;10.95;1.50;;;21.90;99.90;;;;;;4986574;28;20046;-78
2022/08/26 09:23:03;;;;;;;10.50;1.80;;;21.90;99.90;;;;;;4973786;28;20536;-79
2022/08/26 09:25:29;;;;;;;8.18;1.30;;;21.90;99.90;;;;;;4982069;28;20081;-79
2022/08/26 09:27:54;;;;;;;7.07;1.25;;;22.00;99.90;;;;;;4997635;28;20046;-80
2022/08/26 09:30:29;;;;;;;9.52;1.30;;;21.70;99.90;;;;;;4991754;28;20065;-80
2022/08/26 09:33:02;;;;;;;3.45;0.80;;;22.00;99.90;;;;;;5007455;28;20074;-80
2022/08/26 09:35:34;;;;;;;8.32;1.23;;;22.00;99.90;;;;;;4982449;28;20060;-79
2022/08/26 09:38:00;;;;;;;4.05;0.88;;;22.10;99.90;;;;;;5008003;28;20046;-79
2022/08/26 09:40:34;;;;;;;6.70;1.75;;;22.10;99.90;;;;;;5009140;28;20062;-79
2022/08/26 09:43:20;;;;;;;6.13;1.42;;;22.20;99.90;;;;;;4979271;28;20042;-79
2022/08/26 09:45:53;;;;;;;9.60;1.40;;;22.30;99.90;;;;;;4980120;28;20514;-80
2022/08/26 09:48:35;;;;;;;5.35;1.15;;;22.30;99.90;;;;;;4980138;28;20071;-80
2022/08/26 09:51:26;;;;;;;10.02;2.17;;;22.30;99.90;;;;;;4986733;28;20147;-80
2022/08/26 09:53:58;;;;;;;8.55;1.20;;;22.40;99.90;;;;;;4969654;28;20042;-80
2022/08/26 09:56:31;;;;;;;7.85;0.98;;;22.30;99.90;;;;;;5010386;28;20067;-81
2022/08/26 09:58:58;;;;;;;7.10;0.98;;;22.30;99.90;;;;;;4982480;28;20070;-79
2022/08/26 10:01:34;;;;;;;11.32;1.85;;;22.30;99.90;;;;;;4984160;28;20090;-80
2022/08/26 10:04:21;;;;;;;8.95;1.48;;;22.40;99.90;;;;;;4999608;28;20125;-78
2022/08/26 10:07:02;;;;;;;6.85;1.55;;;22.40;99.90;;;;;;4982536;28;20105;-81
2022/08/26 10:09:32;;;;;;;8.02;1.42;;;22.40;99.90;;;;;;4980658;28;20133;-79
2022/08/26 10:12:09;;;;;;;7.25;1.00;;;22.50;99.90;;;;;;4976860;28;20030;-80
2022/08/26 10:14:50;;;;;;;8.45;1.73;;;22.50;99.90;;;;;;5008896;28;20129;-79
2022/08/26 10:17:34;;;;;;;4.75;1.00;;;22.50;99.90;;;;;;5011873;28;20328;-78
2022/08/26 10:20:24;;;;;;;9.30;1.40;;;22.50;99.90;;;;;;4982008;28;20035;-78
2022/08/26 10:22:56;;;;;;;9.65;1.77;;;22.50;99.90;;;;;;4979055;28;20049;-82
2022/08/26 10:25:36;;;;;;;7.95;1.17;;;22.40;99.90;;;;;;4968768;28;20061;-79
2022/08/26 10:28:16;;;;;;;8.70;1.63;;;22.50;99.90;;;;;;4976659;28;20046;-76
2022/08/26 10:30:50;;;;;;;12.52;1.52;;;22.60;99.90;;;;;;4970860;28;20042;-80
2022/08/26 10:33:16;;;;;;;8.63;1.67;;;22.70;99.90;;;;;;4977747;28;20135;-81
2022/08/26 10:35:54;;;;;;;8.32;1.67;;;22.70;99.90;;;;;;5009388;28;20065;-80
2022/08/26 10:38:33;;;;;;;5.10;1.02;;;22.90;99.90;;;;;;4977706;28;20066;-81
2022/08/26 10:40:58;;;;;;;10.48;1.40;;;23.00;99.90;;;;;;4981119;28;20181;-78
2022/08/26 10:43:34;;;;;;;6.95;1.35;;;23.10;99.90;;;;;;4975398;28;20058;-79
2022/08/26 10:46:03;;;;;;;8.68;1.67;;;23.20;99.90;;;;;;4980251;28;20039;-81
2022/08/26 10:48:45;;;;;;;6.18;1.17;;;23.10;99.90;;;;;;4980077;28;20050;-78
2022/08/26 10:51:13;;;;;;;5.63;1.15;;;23.20;99.90;;;;;;4980036;28;20459;-81
2022/08/26 10:53:54;;;;;;;4.97;0.90;;;23.00;99.90;;;;;;4980184;28;20100;-77
2022/08/26 10:56:41;;;;;;;9.80;1.40;;;22.90;99.90;;;;;;4980445;28;20070;-80
2022/08/26 10:59:29;;;;;;;9.88;1.25;;;22.80;99.90;;;;;;5008734;28;20523;-77
2022/08/26 11:02:06;;;;;;;9.95;1.25;;;22.60;99.90;;;;;;4981555;28;20046;-81
2022/08/26 11:04:58;;;;;;;8.73;2.03;;;22.50;99.90;;;;;;4978453;28;20030;-78
2022/08/26 11:07:35;;;;;;;7.88;1.27;;;22.40;99.90;;;;;;5009120;28;20144;-80
2022/08/26 11:10:08;;;;;;;9.00;1.52;;;22.30;99.90;;;;;;4987792;28;20042;-81
2022/08/26 11:12:37;;;;;;;8.38;1.55;;;22.20;99.90;;;;;;4982430;28;20070;-79
2022/08/26 11:15:08;;;;;;;9.15;1.85;;;22.10;99.90;;;;;;4982909;28;20494;-78
2022/08/26 11:17:43;;;;;;;9.05;1.17;;;22.00;99.90;;;;;;4984791;28;20042;-80
2022/08/26 11:20:34;;;;;;;6.68;1.00;;;22.00;99.90;;;;;;4982007;28;20396;-81
2022/08/26 11:23:11;;;;;;;5.90;1.08;;;22.10;99.90;;;;;;5006381;28;20178;-80
2022/08/26 11:26:07;;;;;;;10.02;1.45;;;22.10;99.90;;;;;;4980459;28;20394;-79
2022/08/26 11:28:34;;;;;;;8.27;1.50;;;22.10;99.90;;;;;;4995899;28;20038;-77
2022/08/26 11:31:01;;;;;;;7.32;1.15;;;22.20;99.90;;;;;;4985801;28;20038;-81
2022/08/26 11:33:42;;;;;;;12.05;2.95;;;22.10;99.90;;;;;;4980417;28;20079;-80
2022/08/26 11:36:09;;;;;;;16.77;2.08;;;22.10;99.90;;;;;;4980019;28;20406;-81
2022/08/26 11:38:40;;;;;;;13.38;1.65;;;22.10;99.90;;;;;;4980051;28;20675;-81
2022/08/26 11:41:16;;;;;;;12.77;1.80;;;22.10;99.90;;;;;;4983534;28;20031;-81
2022/08/26 11:43:42;;;;;;;15.25;2.97;;;22.10;99.90;;;;;;4979721;28;20050;-81
2022/08/26 11:46:11;;;;;;;7.68;1.50;;;22.00;99.90;;;;;;5006824;28;20060;-80
2022/08/26 11:48:40;;;;;;;6.20;1.55;;;22.00;99.90;;;;;;4982195;28;20042;-78
2022/08/26 11:51:21;;;;;;;6.85;1.23;;;22.00;99.90;;;;;;4985296;28;20054;-81
2022/08/26 11:53:47;;;;;;;4.53;1.08;;;22.00;99.90;;;;;;4986443;28;20053;-81
2022/08/26 11:56:46;;;;;;;7.57;1.20;;;21.90;99.90;;;;;;4981347;28;20030;-81
2022/08/26 11:59:17;;;;;;;4.78;0.82;;;21.90;99.90;;;;;;4953891;28;20527;-81
2022/08/26 12:01:47;;;;;;;9.43;1.30;;;22.10;99.90;;;;;;5011346;28;20042;-82
2022/08/26 12:04:24;;;;;;;4.85;0.82;;;21.80;99.90;;;;;;4982111;28;20042;-81
2022/08/26 12:06:50;;;;;;;4.85;0.95;;;21.80;99.90;;;;;;4984231;28;20046;-79
2022/08/26 12:09:23;;;;;;;3.65;1.00;;;21.70;99.90;;;;;;4981832;28;20045;-81
2022/08/26 12:11:49;;;;;;;7.65;0.85;;;21.60;99.90;;;;;;4984124;28;20129;-81
2022/08/26 12:14:23;;;;;;;9.48;1.17;;;21.60;99.90;;;;;;4983000;28;20176;-79
2022/08/26 12:16:49;;;;;;;7.53;1.10;;;21.50;99.90;;;;;;4982420;28;20141;-80
2022/08/26 12:19:25;;;;;;;7.65;1.17;;;21.50;99.90;;;;;;4981066;28;20516;-80
2022/08/26 12:22:02;;;;;;;6.55;0.95;;;21.50;99.90;;;;;;4985635;28;20526;-79
2022/08/26 12:24:28;;;;;;;8.30;1.02;;;21.40;99.90;;;;;;4980127;28;20050;-81
2022/08/26 12:27:27;;;;;;;7.95;1.63;;;21.40;99.90;;;;;;4983587;28;20609;-80
2022/08/26 12:30:08;;;;;;;8.15;0.80;;;21.50;99.90;;;;;;4988846;28;20065;-81
2022/08/26 12:32:35;;;;;;;9.32;1.13;;;21.50;99.90;;;;;;4987473;28;20066;-78
2022/08/26 12:35:02;;;;;;;5.47;1.02;;;21.60;99.90;;;;;;5002238;28;20056;-80
2022/08/26 12:37:33;;;;;;;8.23;0.80;;;21.80;99.90;;;;;;5011693;28;20054;-81
2022/08/26 12:40:38;;;;;;;3.35;0.63;;;21.90;99.90;;;;;;5012102;28;20073;-78
2022/08/26 12:43:05;;;;;;;3.95;0.85;;;22.10;99.90;;;;;;4986599;28;20062;-78
2022/08/26 12:45:42;;;;;;;5.28;0.60;;;22.00;99.90;;;;;;4985884;28;20121;-81
2022/08/26 12:48:22;;;;;;;5.80;0.60;;;22.10;99.90;;;;;;4984339;28;20039;-81
2022/08/26 12:50:50;;;;;;;6.05;0.77;;;22.20;99.90;;;;;;4985358;28;20049;-81
2022/08/26 12:53:28;;;;;;;5.00;1.05;;;22.30;99.90;;;;;;4983959;28;20125;-81
2022/08/26 12:55:57;;;;;;;5.28;0.75;;;22.50;99.90;;;;;;4987150;28;20482;-80
2022/08/26 12:58:30;;;;;;;3.88;1.00;;;22.60;99.90;;;;;;5003243;28;20074;-81
2022/08/26 13:01:05;;;;;;;6.22;0.70;;;22.80;99.90;;;;;;4989680;28;20054;-78